Terminal Aerodrome Forecast
Issued by NWS

Home | Current Version | Previous Version | Text Only | Print | Product List | Glossary On
Versions: 1 2 3 4 5 6 7 8 9 10 11 12 13
000
FTUS46 KSEW 040537
TAFCLM
TAF
KCLM 040537Z 0406/0506 19004KT P6SM BKN050 OVC090
     FM040900 24003KT P6SM BKN020 BKN050
      TEMPO 0409/0413 SCT020 BKN050
     FM041800 34008KT P6SM BKN080=

USA.gov is the U.S. government's official web portal to all federal, state and local government web resources and services.